Flight Track Log - Related Links

Times and Time Zones

All times are in EDT time to prevent confusion due to time zone crossing. See the N312RM flight status page for this flight to view local times or setup timezone preferences in your user account.

Time Position Orientation Groundspeed Altitude Reporting Facility
EDT Latitude Longitude Course Direction KTS MPH feet Rate Location/Type
Sat 02:11:25 PM 30.7619 -86.2069 90° East 105 121 1,600  Level Jacksonville Center
Sat 02:12:32 PM 30.7586 -86.1753 97° East 84 97 2,000 331 Climbing Jacksonville Center
Sat 02:13:32 PM 30.7572 -86.1464 93° East 89 102 2,300 298 Climbing Jacksonville Center
Sat 02:14:33 PM 30.7561 -86.1125 92° East 102 117 2,600 295 Climbing Jacksonville Center
Sat 02:15:00 PM 30.7333 -85.9224 90° East  Level FlightAware Approximate
Sat 02:15:34 PM 30.7547 -86.0811 93° East 99 114 2,900  Level Jacksonville Center
Sat 02:16:00 PM 30.7333 -85.8843 90° East  Level FlightAware Approximate
Sat 02:16:34 PM 30.7578 -86.0497 84° East 99 114 3,200  Level Jacksonville Center
Sat 02:17:35 PM 30.7606 -86.0158 85° East 100 115 3,500 347 Climbing Jacksonville Center
Sat 02:18:35 PM 30.7614 -85.9844 88° East 101 116 3,900 397 Climbing Jacksonville Center
Sat 02:19:36 PM 30.7642 -85.9508 84° East 103 119 4,300 344 Climbing Jacksonville Center
Sat 02:20:37 PM 30.7672 -85.9194 84° East 104 120 4,600 298 Climbing Jacksonville Center
Sat 02:21:37 PM 30.7681 -85.8831 88° East 103 119 4,900 298 Climbing Jacksonville Center
Sat 02:22:38 PM 30.7689 -85.8494 88° East 106 122 5,200 298 Climbing Jacksonville Center
Sat 02:23:38 PM 30.7675 -85.8131 93° East 114 131 5,500 298 Climbing Jacksonville Center
Sat 02:24:39 PM 30.7706 -85.7744 85° East 115 132 5,800 246 Climbing Jacksonville Center
Sat 02:25:40 PM 30.7733 -85.7358 85° East 118 136 6,000 298 Climbing Jacksonville Center
Sat 02:26:40 PM 30.7722 -85.6997 92° East 116 133 6,400 347 Climbing Jacksonville Center
Sat 02:27:41 PM 30.7731 -85.6608 89° East 117 135 6,700 298 Climbing Jacksonville Center
Sat 02:28:41 PM 30.7717 -85.6222 92° East 115 132 7,000 149 Climbing Jacksonville Center
Sat 02:29:42 PM 30.7725 -85.5811 89° East 131 151 7,000  Level Jacksonville Center
Sat 02:30:43 PM 30.7736 -85.5375 88° East 137 158 7,000  Level Jacksonville Center
Sat 02:31:43 PM 30.7764 -85.4942 86° East 135 155 7,000  Level Jacksonville Center
Sat 02:32:44 PM 30.7794 -85.4483 86° East 136 157 7,000  Level Jacksonville Center
Sat 02:33:45 PM 30.7825 -85.4050 85° East 137 158 7,000  Level Jacksonville Center
Sat 02:34:45 PM 30.7833 -85.3639 89° East 138 159 7,000  Level Jacksonville Center
Sat 02:35:46 PM 30.7822 -85.3178 92° East 134 154 7,000  Level Jacksonville Center
Sat 02:36:46 PM 30.7831 -85.2719 89° East 133 153 7,000  Level Jacksonville Center
Sat 03:14:04 PM 30.2103 -83.8950 130° Southeast 133 153 7,000  Level Jacksonville Center
Sat 03:15:00 PM 30.2733 -83.9812 130° Southeast  Level FlightAware Approximate
Sat 03:15:04 PM 30.1878 -83.8633 129° Southeast 133 153 7,000  Level Jacksonville Center
Sat 03:16:00 PM 30.2523 -83.9521 130° Southeast  Level FlightAware Approximate
Sat 03:16:04 PM 30.1669 -83.8344 130° Southeast 133 153 7,000  Level Jacksonville Center
Sat 03:17:00 PM 30.2312 -83.9230 130° Southeast  Level FlightAware Approximate
Sat 03:17:04 PM 30.1442 -83.8031 130° Southeast 133 153 7,000  Level Jacksonville Center
Sat 03:18:00 PM 30.2102 -83.8939 130° Southeast  Level FlightAware Approximate
Sat 03:18:04 PM 30.1217 -83.7692 128° Southeast 133 153 7,000  Level Jacksonville Center
Sat 03:19:04 PM 30.0967 -83.7353 130° Southeast 133 153 7,000  Level Jacksonville Center
Sat 03:20:03 PM 30.0761 -83.7014 125° Southeast 133 153 7,000  Level Jacksonville Center
Sat 03:21:03 PM 30.0533 -83.6725 132° Southeast 133 153 7,000  Level Jacksonville Center
Sat 03:22:04 PM 30.0283 -83.6411 133° Southeast 133 153 7,000  Level Jacksonville Center
Sat 03:23:04 PM 30.0078 -83.6097 127° Southeast 128 147 7,000  Level Jacksonville Center
Sat 03:24:04 PM 29.9828 -83.5783 133° Southeast 128 147 7,000  Level Jacksonville Center
Sat 03:25:04 PM 29.9600 -83.5472 130° Southeast 128 147 7,000  Level Jacksonville Center
Sat 03:26:04 PM 29.9392 -83.5158 127° Southeast 128 147 7,000  Level Jacksonville Center
Sat 03:27:04 PM 29.9164 -83.4844 130° Southeast 133 153 7,000  Level Jacksonville Center
Sat 03:28:04 PM 29.8936 -83.4531 130° Southeast 133 153 7,000  Level Jacksonville Center
Sat 03:29:04 PM 29.8708 -83.4219 130° Southeast 133 153 7,000  Level Jacksonville Center
Sat 03:30:03 PM 29.8481 -83.3883 128° Southeast 133 153 7,000  Level Jacksonville Center
Sat 03:31:04 PM 29.8231 -83.3547 131° Southeast 133 153 7,000  Level Jacksonville Center
Sat 03:32:04 PM 29.8003 -83.3258 132° Southeast 133 153 7,000  Level Jacksonville Center
Sat 03:33:04 PM 29.7772 -83.2922 128° Southeast 133 153 7,000  Level Jacksonville Center
Sat 03:34:04 PM 29.7544 -83.2611 130° Southeast 133 153 7,000 -50 Level Jacksonville Center
Sat 03:35:04 PM 29.7294 -83.2297 133° Southeast 133 153 6,900 -50 Descending Jacksonville Center
Sat 03:36:04 PM 29.7067 -83.2011 133° Southeast 133 153 6,900  Level Jacksonville Center
Sat 03:37:04 PM 29.6836 -83.1675 128° Southeast 133 153 6,900  Level Jacksonville Center
Sat 03:38:04 PM 29.6608 -83.1339 128° Southeast 133 153 6,900  Level Jacksonville Center
Sat 03:39:04 PM 29.6358 -83.1028 133° Southeast 133 153 6,900  Level Jacksonville Center
Sat 03:39:35 PM 29.6233 -83.0886 135° Southeast 130 150 6,900  Level Jacksonville Center
Sat 03:40:04 PM 29.6131 -83.0694 122° Southeast 133 153 6,900  Level Jacksonville Center
Sat 03:40:30 PM 29.6025 -83.0575 135° Southeast 132 152 6,900  Level Jacksonville Center
Sat 03:41:04 PM 29.5919 -83.0383 122° Southeast 133 153 6,900  Level Jacksonville Center
Sat 03:41:31 PM 29.5836 -83.0217 120° Southeast 127 146 6,900  Level Jacksonville Center
Sat 03:42:04 PM 29.5753 -83.0025 117° Southeast 113 130 6,900  Level Jacksonville Center
Sat 03:42:32 PM 29.5672 -82.9833 116° Southeast 128 147 6,900  Level Jacksonville Center
Sat 03:43:04 PM 29.5586 -82.9642 117° Southeast 122 140 6,900  Level Jacksonville Center
Sat 03:43:39 PM 29.5483 -82.9450 122° Southeast 128 147 6,900  Level Jacksonville Center
Sat 03:44:04 PM 29.5400 -82.9283 120° Southeast 121 139 6,900 109 Level Jacksonville Center
Sat 03:44:34 PM 29.5317 -82.9117 120° Southeast 129 148 7,000 100 Climbing Jacksonville Center
Sat 03:45:04 PM 29.5253 -82.8925 111° Southeast 122 140 7,000  Level Jacksonville Center
Sat 03:45:35 PM 29.5150 -82.8783 130° Southeast 128 147 7,000  Level Jacksonville Center
Sat 03:46:04 PM 29.5086 -82.8567 109° East 122 140 7,000  Level Jacksonville Center
Sat 03:46:36 PM 29.4983 -82.8425 130° Southeast 128 147 7,000  Level Jacksonville Center
Sat 03:47:04 PM 29.4919 -82.8233 111° Southeast 127 146 7,000  Level Jacksonville Center
Sat 03:47:36 PM 29.4772 -82.8042 131° Southeast 127 146 7,000  Level Jacksonville Center
Sat 03:48:04 PM 29.4731 -82.7900 109° East 127 146 7,000  Level Jacksonville Center
Sat 03:48:44 PM 29.4606 -82.7639 119° Southeast 126 145 7,000  Level Jacksonville Center
Sat 03:49:04 PM 29.4564 -82.7567 124° Southeast 121 139 7,000  Level Jacksonville Center
Sat 03:49:38 PM 29.4417 -82.7353 128° Southeast 124 143 7,000  Level Jacksonville Center
Sat 03:50:39 PM 29.4231 -82.6994 121° Southeast 128 147 7,000  Level Jacksonville Center
Sat 03:51:46 PM 29.4000 -82.6614 125° Southeast 129 148 7,000 -47 Level Jacksonville Center
Sat 03:52:47 PM 29.3831 -82.6256 118° Southeast 127 146 6,900  Descending Jacksonville Center
Sat 03:53:42 PM 29.3664 -82.5922 120° Southeast 128 147 7,000 49 Climbing Jacksonville Center
Sat 03:54:49 PM 29.3475 -82.5567 121° Southeast 128 147 7,000  Level Jacksonville Center
Sat 03:55:56 PM 29.3264 -82.5161 121° Southeast 129 148 7,000  Level Jacksonville Center
Sat 03:56:44 PM 29.3203 -82.4878 104° East 127 146 7,000  Level Jacksonville Center
Sat 03:57:45 PM 29.3094 -82.4450 106° East 128 147 7,000  Level Jacksonville Center
Sat 03:58:46 PM 29.2886 -82.4117 126° Southeast 124 143 7,000 -98 Level Jacksonville Center
Sat 03:59:47 PM 29.2656 -82.3808 131° Southeast 126 145 6,800 -246 Descending Jacksonville Center
Sat 04:00:48 PM 29.2425 -82.3500 131° Southeast 127 146 6,500 -295 Descending Jacksonville Center
Sat 04:01:49 PM 29.2214 -82.3167 126° Southeast 130 150 6,200 -295 Descending Jacksonville Center
Sat 04:02:50 PM 29.2025 -82.2811 121° Southeast 122 140 5,900 -344 Descending Jacksonville Center
Sat 04:03:51 PM 29.1836 -82.2503 125° Southeast 123 142 5,500 -393 Descending Jacksonville Center
Sat 04:04:52 PM 29.1625 -82.2219 130° Southeast 114 131 5,100 -248 Descending Jacksonville Center
Sat 04:05:52 PM 29.1414 -82.1936 130° Southeast 117 135 5,000 -50 Descending Jacksonville Center
Sat 04:06:53 PM 29.1203 -82.1628 128° Southeast 122 140 5,000 -49 Level Jacksonville Center
Sat 04:07:54 PM 29.0994 -82.1297 126° Southeast 123 142 4,900 -47 Descending Jacksonville Center
Sat 04:09:01 PM 29.0742 -82.0967 131° Southeast 119 137 4,900 47 Level Jacksonville Center
Sat 04:10:03 PM 29.0550 -82.0658 125° Southeast 119 137 5,000 34 Climbing Jacksonville Center
Sat 04:11:57 PM 29.0167 -82.0000 124° Southeast 119 137 5,000  Level Orlando TRACON
Sat 04:13:03 PM 29.0000 -81.9667 120° Southeast 124 143 5,000  Level Orlando TRACON
Sat 04:14:03 PM 28.9667 -81.9333 139° Southeast 121 139 5,000 -50 Level Orlando TRACON
Sat 04:15:03 PM 28.9500 -81.9167 139° Southeast 126 145 4,900  Descending Orlando TRACON
Sat 04:15:58 PM 28.9333 -81.8833 120° Southeast 119 137 5,000 50 Climbing Orlando TRACON
Sat 04:17:04 PM 28.9167 -81.8500 120° Southeast 121 139 5,000  Level Orlando TRACON
Sat 04:18:04 PM 28.8833 -81.8167 139° Southeast 123 142 5,000  Level Orlando TRACON
Sat 04:19:04 PM 28.8500 -81.8000 156° South 125 144 5,000  Level Orlando TRACON
Sat 04:19:58 PM 28.8333 -81.7667 120° Southeast 126 145 5,000 -53 Level Orlando TRACON
Sat 04:20:58 PM 28.8000 -81.7500 156° South 126 145 4,900 -190 Descending Orlando TRACON
Sat 04:22:04 PM 28.7833 -81.7167 120° Southeast 125 144 4,600 -250 Descending Orlando TRACON
Sat 04:22:58 PM 28.7667 -81.7000 139° Southeast 117 135 4,400 -222 Descending Orlando TRACON
Sat 04:23:52 PM 28.7333 -81.6667 139° Southeast 112 129 4,200 -300 Descending Orlando TRACON
Sat 04:24:58 PM 28.7167 -81.6500 139° Southeast 114 131 3,800 -333 Descending Orlando TRACON
Sat 04:25:58 PM 28.6833 -81.6167 139° Southeast 118 136 3,500 -300 Descending Orlando TRACON
Sat 04:26:58 PM 28.6667 -81.6000 139° Southeast 116 133 3,200 -283 Descending Orlando TRACON
Sat 04:28:05 PM 28.6333 -81.5667 139° Southeast 113 130 2,900 -286 Descending Orlando TRACON
Sat 04:29:04 PM 28.6167 -81.5500 139° Southeast 117 135 2,600 -303 Descending Orlando TRACON
Sat 04:30:04 PM 28.5833 -81.5167 139° Southeast 108 124 2,300 -298 Descending Orlando TRACON
Sat 04:31:05 PM 28.5667 -81.5000 139° Southeast 101 116 2,000 -313 Descending Orlando TRACON
Sat 04:31:59 PM 28.5667 -81.4667 90° East 102 117 1,700 -263 Descending Orlando TRACON
Sat 04:32:59 PM 28.5500 -81.4500 139° Southeast 102 117 1,500 -150 Descending Orlando TRACON
Sat 04:33:59 PM 28.5333 -81.4167 120° Southeast 94 108 1,400 -150 Descending Orlando TRACON
Sat 04:34:59 PM 28.5333 -81.3833 90° East 87 100 1,200 -300 Descending Orlando TRACON
Sat 04:35:59 PM 28.5333 -81.3667 90° East 72 83 800 -429 Descending Orlando TRACON
Sat 04:37:05 PM 28.5333 -81.3500 90° East 63 72 300 -455 Descending Orlando TRACON
Sat 04:39:00 PM 28.5455 -81.3329 124° Southeast  Level Estimated
Sat 04:46:00 PM 28.5455 -81.3329 124° Southeast  Level Estimated
Sat 04:47:00 PM 28.5455 -81.3329 130° Southeast  Level Estimated
Sat 04:48:00 PM 28.5455 -81.3329 130° Southeast  Level Estimated

Login

Don't have an account? Register now (free) for customized features, flight alerts, and more!